createdAt,value
2022-12-17T00:00:51.593Z,1.29
2022-12-17T00:03:37.691Z,1.30
2022-12-17T00:06:22.977Z,1.32
2022-12-17T00:09:08.223Z,1.33
2022-12-17T00:11:53.860Z,1.34
2022-12-17T00:14:41.288Z,1.33
2022-12-17T00:17:26.583Z,1.34
2022-12-17T00:20:11.843Z,1.32
2022-12-17T00:22:57.047Z,1.31
2022-12-17T00:25:44.501Z,1.30
2022-12-17T00:28:31.419Z,1.33
2022-12-17T00:31:17.510Z,1.34
2022-12-17T00:34:03.338Z,1.35
2022-12-17T00:36:48.392Z,1.36
2022-12-17T00:39:33.559Z,1.34
2022-12-17T00:42:18.747Z,1.35
2022-12-17T00:45:04.054Z,1.34
2022-12-17T00:47:48.990Z,1.33
2022-12-17T00:50:34.826Z,1.33
2022-12-17T00:53:20.863Z,1.32
2022-12-17T00:56:05.865Z,1.30
2022-12-17T00:58:51.767Z,1.32
2022-12-17T01:01:37.263Z,1.33
2022-12-17T01:04:23.302Z,1.35
2022-12-17T01:07:08.665Z,1.36
2022-12-17T01:09:53.919Z,1.37
2022-12-17T01:12:39.306Z,1.37
2022-12-17T01:15:25.646Z,1.38
2022-12-17T01:18:10.977Z,1.39
2022-12-17T01:21:10.192Z,1.39
2022-12-17T01:23:55.315Z,1.38
2022-12-17T01:26:41.368Z,1.40
2022-12-17T01:29:26.746Z,1.41
2022-12-17T01:32:12.011Z,1.42
2022-12-17T01:34:57.192Z,1.44
2022-12-17T01:37:42.249Z,1.44
2022-12-17T01:40:42.846Z,1.45
2022-12-17T01:43:31.499Z,1.45
2022-12-17T01:46:17.439Z,1.46
2022-12-17T01:49:06.313Z,1.47
2022-12-17T01:51:52.575Z,1.46
2022-12-17T01:54:38.265Z,1.47
2022-12-17T01:57:25.594Z,1.47
2022-12-17T02:00:26.817Z,1.49
2022-12-17T02:03:12.587Z,1.49
2022-12-17T02:06:25.249Z,1.50
2022-12-17T02:09:34.584Z,1.48
2022-12-17T02:12:34.398Z,1.48
2022-12-17T02:15:50.749Z,1.48
2022-12-17T02:18:48.935Z,1.46
2022-12-17T02:21:34.114Z,1.47
2022-12-17T02:24:52.868Z,1.46
2022-12-17T02:27:38.700Z,1.46
2022-12-17T02:30:26.429Z,1.46
2022-12-17T02:33:13.048Z,1.48
2022-12-17T02:36:03.795Z,1.50
2022-12-17T02:38:50.709Z,1.50
2022-12-17T02:41:43.036Z,1.49
2022-12-17T02:44:31.920Z,1.49
2022-12-17T02:47:18.631Z,1.48
2022-12-17T02:50:03.863Z,1.50
2022-12-17T02:52:51.854Z,1.49
2022-12-17T02:55:37.077Z,1.49
2022-12-17T02:58:22.302Z,1.49
2022-12-17T03:01:07.610Z,1.49
2022-12-17T03:03:52.801Z,1.48
2022-12-17T03:06:37.967Z,1.49
2022-12-17T03:09:23.047Z,1.50
2022-12-17T03:12:08.238Z,1.49
2022-12-17T03:14:53.554Z,1.51
2022-12-17T03:17:38.843Z,1.51
2022-12-17T03:20:25.076Z,1.51
2022-12-17T03:23:10.159Z,1.52
2022-12-17T03:25:55.341Z,1.54
2022-12-17T03:28:40.409Z,1.52
2022-12-17T03:31:25.588Z,1.52
2022-12-17T03:34:10.995Z,1.52
2022-12-17T03:36:56.150Z,1.54
2022-12-17T03:39:41.335Z,1.54
2022-12-17T03:42:26.604Z,1.54
2022-12-17T03:45:11.880Z,1.54
2022-12-17T03:47:56.867Z,1.55
2022-12-17T03:50:42.180Z,1.55
2022-12-17T03:53:27.259Z,1.56
2022-12-17T03:56:12.432Z,1.56
2022-12-17T03:58:57.617Z,1.56
2022-12-17T04:01:43.458Z,1.56
2022-12-17T04:04:28.749Z,1.56
2022-12-17T04:07:13.831Z,1.57
2022-12-17T04:09:59.537Z,1.58
2022-12-17T04:12:44.650Z,1.58
2022-12-17T04:15:30.026Z,1.58
2022-12-17T04:18:15.408Z,1.59
2022-12-17T04:21:00.405Z,1.58
2022-12-17T04:23:45.673Z,1.59
2022-12-17T04:26:30.872Z,1.60
2022-12-17T04:29:16.071Z,1.60
2022-12-17T04:32:01.282Z,1.60
2022-12-17T04:34:46.555Z,1.59
2022-12-17T04:37:31.784Z,1.60
2022-12-17T04:40:16.961Z,1.60
2022-12-17T04:43:02.299Z,1.58
2022-12-17T04:45:47.389Z,1.55
2022-12-17T04:48:32.479Z,1.58
2022-12-17T04:51:17.576Z,1.58
2022-12-17T04:54:02.850Z,1.57
2022-12-17T04:56:48.009Z,1.55
2022-12-17T04:59:33.093Z,1.56
2022-12-17T05:02:18.455Z,1.55
2022-12-17T05:05:03.740Z,1.55
2022-12-17T05:07:48.824Z,1.53
2022-12-17T05:10:34.550Z,1.55
2022-12-17T05:13:20.732Z,1.54
2022-12-17T05:16:06.507Z,1.53
2022-12-17T05:18:51.616Z,1.52
2022-12-17T05:21:36.814Z,1.52
2022-12-17T05:24:22.281Z,1.51
2022-12-17T05:27:07.374Z,1.50
2022-12-17T05:29:52.715Z,1.48
2022-12-17T05:32:37.816Z,1.48
2022-12-17T05:35:23.597Z,1.47
2022-12-17T05:38:08.682Z,1.47
2022-12-17T05:40:53.936Z,1.46
2022-12-17T05:43:39.460Z,1.46
2022-12-17T05:46:24.765Z,1.44
2022-12-17T05:49:10.048Z,1.42
2022-12-17T05:51:55.162Z,1.43
2022-12-17T05:54:40.462Z,1.40
2022-12-17T05:57:25.546Z,1.41
2022-12-17T06:00:10.782Z,1.42
2022-12-17T06:02:56.089Z,1.43
2022-12-17T06:05:41.335Z,1.42
2022-12-17T06:08:28.297Z,1.42
2022-12-17T06:11:17.215Z,1.46
2022-12-17T06:14:02.909Z,1.44
2022-12-17T06:16:48.236Z,1.44
2022-12-17T06:19:33.399Z,1.44
2022-12-17T06:22:19.645Z,1.43
2022-12-17T06:25:04.822Z,1.44
2022-12-17T06:27:50.155Z,1.43
2022-12-17T06:30:35.433Z,1.45
2022-12-17T06:33:26.335Z,1.45
2022-12-17T06:36:21.327Z,1.46
2022-12-17T06:39:07.503Z,1.45
2022-12-17T06:41:52.589Z,1.46
2022-12-17T06:44:37.878Z,1.45
2022-12-17T06:47:22.957Z,1.47
2022-12-17T06:50:08.147Z,1.45
2022-12-17T06:52:53.519Z,1.46
2022-12-17T06:55:38.681Z,1.45
2022-12-17T06:58:24.274Z,1.46
2022-12-17T07:01:10.050Z,1.44
2022-12-17T07:03:55.368Z,1.45
2022-12-17T07:06:40.963Z,1.43
2022-12-17T07:09:26.196Z,1.41
2022-12-17T07:12:11.511Z,1.41
2022-12-17T07:14:56.717Z,1.39
2022-12-17T07:17:42.248Z,1.39
2022-12-17T07:20:28.460Z,1.39
2022-12-17T07:23:16.631Z,1.38
2022-12-17T07:26:01.976Z,1.39
2022-12-17T07:28:47.091Z,1.39
2022-12-17T07:31:32.597Z,1.39
2022-12-17T07:34:17.739Z,1.40
2022-12-17T07:37:03.019Z,1.40
2022-12-17T07:39:48.242Z,1.41
2022-12-17T07:42:33.575Z,1.40
2022-12-17T07:45:18.725Z,1.42
2022-12-17T07:48:12.066Z,1.43
2022-12-17T07:50:57.241Z,1.43
2022-12-17T07:53:42.354Z,1.45
2022-12-17T07:56:27.555Z,1.46
2022-12-17T07:59:12.702Z,1.47
2022-12-17T08:01:58.124Z,1.49
2022-12-17T08:04:43.261Z,1.51
2022-12-17T08:07:28.464Z,1.55
2022-12-17T08:10:13.424Z,1.56
2022-12-17T08:12:58.457Z,1.57
2022-12-17T08:15:43.619Z,1.61
2022-12-17T08:18:29.082Z,1.63
2022-12-17T08:21:14.336Z,1.64
2022-12-17T08:23:59.806Z,1.66
2022-12-17T08:26:48.111Z,1.70
2022-12-17T08:29:34.404Z,1.71
2022-12-17T08:32:19.522Z,1.73
2022-12-17T08:35:04.630Z,1.74
2022-12-17T08:37:49.732Z,1.77
2022-12-17T08:40:35.017Z,1.80
2022-12-17T08:43:20.296Z,1.82
2022-12-17T08:46:11.018Z,1.86
2022-12-17T08:48:57.333Z,1.88
2022-12-17T08:51:43.096Z,1.92
2022-12-17T08:54:28.859Z,1.95
2022-12-17T08:57:22.618Z,1.97
2022-12-17T09:00:16.321Z,2.01
2022-12-17T09:03:01.651Z,2.04
2022-12-17T09:05:46.974Z,2.08
2022-12-17T09:08:32.057Z,2.11
2022-12-17T09:11:20.196Z,2.16
2022-12-17T09:14:05.497Z,2.17
2022-12-17T09:16:50.626Z,2.18
2022-12-17T09:19:35.794Z,2.22
2022-12-17T09:22:20.988Z,2.25
2022-12-17T09:25:06.185Z,2.29
2022-12-17T09:27:51.254Z,2.29
2022-12-17T09:30:36.559Z,2.32
2022-12-17T09:33:21.832Z,2.34
2022-12-17T09:36:06.968Z,2.33
2022-12-17T09:38:52.116Z,2.33
2022-12-17T09:42:01.036Z,2.32
2022-12-17T09:45:18.385Z,2.31
2022-12-17T09:48:39.258Z,2.29
2022-12-17T09:51:24.473Z,2.29
2022-12-17T09:54:11.515Z,2.32
2022-12-17T09:56:59.206Z,2.39
2022-12-17T09:59:54.576Z,2.43
2022-12-17T10:02:45.126Z,2.46
2022-12-17T10:05:44.735Z,2.45
2022-12-17T10:08:34.828Z,2.44
2022-12-17T10:11:37.819Z,2.40
2022-12-17T10:14:46.821Z,2.36
2022-12-17T10:17:37.635Z,2.31
2022-12-17T10:20:37.428Z,2.28
2022-12-17T10:23:22.847Z,2.23
2022-12-17T10:26:15.499Z,2.19
2022-12-17T10:29:00.539Z,2.14
2022-12-17T10:31:48.964Z,2.09
2022-12-17T10:34:39.108Z,2.05
2022-12-17T10:37:25.312Z,2.00
2022-12-17T10:40:19.679Z,1.95
2022-12-17T10:43:06.015Z,1.89
2022-12-17T10:45:54.266Z,1.83
2022-12-17T10:48:49.639Z,1.78
2022-12-17T10:51:55.958Z,1.72
2022-12-17T10:54:53.491Z,1.67
2022-12-17T10:57:58.860Z,1.61
2022-12-17T11:00:58.952Z,1.54
2022-12-17T11:04:08.661Z,1.49
2022-12-17T11:06:59.540Z,1.44
2022-12-17T11:10:10.459Z,1.41
2022-12-17T11:13:04.911Z,1.38
2022-12-17T11:16:11.074Z,1.35
2022-12-17T11:19:30.090Z,1.34
2022-12-17T11:22:21.451Z,1.33
2022-12-17T11:25:56.714Z,1.32
2022-12-17T11:28:48.307Z,1.35
2022-12-17T11:32:03.427Z,1.43
2022-12-17T11:35:04.598Z,1.49
2022-12-17T11:38:30.450Z,1.57
2022-12-17T11:41:42.583Z,1.71
2022-12-17T11:44:47.275Z,1.86
2022-12-17T11:48:13.271Z,2.00
2022-12-17T11:51:12.751Z,2.09
2022-12-17T11:54:24.166Z,2.20
2022-12-17T11:57:27.315Z,2.30
2022-12-17T12:00:25.671Z,2.39
2022-12-17T12:03:23.929Z,2.46
2022-12-17T12:06:17.289Z,2.54
2022-12-17T12:09:27.019Z,2.61
2022-12-17T12:12:31.060Z,2.66
2022-12-17T12:15:33.547Z,2.76
2022-12-17T12:18:53.288Z,2.83
2022-12-17T12:21:57.091Z,2.93
2022-12-17T12:25:04.475Z,2.99
2022-12-17T12:28:26.368Z,3.04
2022-12-17T12:31:42.095Z,3.10
2022-12-17T12:34:39.859Z,3.13
2022-12-17T12:37:26.692Z,3.19
2022-12-17T12:40:46.495Z,3.24
2022-12-17T12:44:09.176Z,3.25
2022-12-17T12:47:11.901Z,3.24
2022-12-17T12:50:13.051Z,3.23
2022-12-17T12:52:58.763Z,3.20
2022-12-17T12:55:57.271Z,3.17
2022-12-17T12:58:51.581Z,3.14
2022-12-17T13:01:38.687Z,3.08
2022-12-17T13:04:52.086Z,3.06
2022-12-17T13:07:29.330Z,3.05
2022-12-17T13:09:58.812Z,3.05
2022-12-17T13:13:20.391Z,3.06
2022-12-17T13:15:53.415Z,3.05
2022-12-17T13:18:40.950Z,3.05
2022-12-17T13:21:17.177Z,3.06
2022-12-17T13:23:44.316Z,3.03
2022-12-17T13:26:21.780Z,3.04
2022-12-17T13:29:02.269Z,3.03
2022-12-17T13:32:03.766Z,3.02
2022-12-17T13:34:57.836Z,2.99
2022-12-17T13:37:45.195Z,2.97
2022-12-17T13:41:10.181Z,2.95
2022-12-17T13:43:58.855Z,2.94
2022-12-17T13:46:48.052Z,2.91
2022-12-17T13:49:29.854Z,2.92
2022-12-17T13:52:17.538Z,2.93
2022-12-17T13:54:44.823Z,2.92
2022-12-17T13:57:25.269Z,2.92
2022-12-17T13:59:54.533Z,2.93
2022-12-17T14:02:31.897Z,2.94
2022-12-17T14:05:08.001Z,2.92
2022-12-17T14:07:39.043Z,2.91
2022-12-17T14:10:15.454Z,2.91
2022-12-17T14:12:42.447Z,2.90
2022-12-17T14:15:28.130Z,2.91
2022-12-17T14:17:56.719Z,2.88
2022-12-17T14:20:26.620Z,2.88
2022-12-17T14:23:03.910Z,2.86
2022-12-17T14:25:39.480Z,2.85
2022-12-17T14:28:38.428Z,2.81
2022-12-17T14:31:29.810Z,2.77
2022-12-17T14:34:10.839Z,2.70
2022-12-17T14:36:41.148Z,2.67
2022-12-17T14:39:33.056Z,2.61
2022-12-17T14:42:44.870Z,2.58
2022-12-17T14:45:14.537Z,2.51
2022-12-17T14:48:01.738Z,2.47
2022-12-17T14:50:35.391Z,2.41
2022-12-17T14:53:23.945Z,2.37
2022-12-17T14:55:58.499Z,2.31
2022-12-17T14:58:27.591Z,2.27
2022-12-17T15:01:16.198Z,2.23
2022-12-17T15:03:46.592Z,2.20
2022-12-17T15:06:20.216Z,2.13
2022-12-17T15:08:49.322Z,2.09
2022-12-17T15:11:22.022Z,2.03
2022-12-17T15:13:52.952Z,1.98
2022-12-17T15:16:23.294Z,1.93
2022-12-17T15:18:50.212Z,1.90
2022-12-17T15:21:18.459Z,1.84
2022-12-17T15:23:46.950Z,1.81
2022-12-17T15:26:15.140Z,1.77
2022-12-17T15:28:42.801Z,1.73
2022-12-17T15:31:12.627Z,1.70
2022-12-17T15:33:40.644Z,1.66
2022-12-17T15:36:09.185Z,1.62
2022-12-17T15:38:36.333Z,1.59
2022-12-17T15:41:25.586Z,1.57
2022-12-17T15:43:52.807Z,1.51
2022-12-17T15:46:19.676Z,1.47
2022-12-17T15:48:50.190Z,1.44
2022-12-17T15:51:19.942Z,1.39
2022-12-17T15:53:48.180Z,1.35
2022-12-17T15:56:21.990Z,1.32
2022-12-17T15:58:48.800Z,1.28
2022-12-17T16:01:15.868Z,1.24
2022-12-17T16:03:42.785Z,1.19
2022-12-17T16:06:10.353Z,1.16
2022-12-17T16:08:40.788Z,1.13
2022-12-17T16:11:09.940Z,1.10
2022-12-17T16:13:38.468Z,1.05
2022-12-17T16:16:06.942Z,1.04
2022-12-17T16:18:33.982Z,1.00
2022-12-17T16:21:08.809Z,1.00
2022-12-17T16:23:36.597Z,0.96
2022-12-17T16:26:06.648Z,0.92
2022-12-17T16:28:35.454Z,0.88
2022-12-17T16:31:07.703Z,0.86
2022-12-17T16:33:36.939Z,0.82
2022-12-17T16:36:06.012Z,0.78
2022-12-17T16:38:33.620Z,0.76
2022-12-17T16:41:03.261Z,0.73
2022-12-17T16:43:34.062Z,0.70
2022-12-17T16:46:01.441Z,0.67
2022-12-17T16:48:28.273Z,0.65
2022-12-17T16:50:55.091Z,0.61
2022-12-17T16:53:22.050Z,0.60
2022-12-17T16:55:49.948Z,0.55
2022-12-17T16:58:17.815Z,0.53
2022-12-17T17:00:46.078Z,0.50
2022-12-17T17:03:13.350Z,0.46
2022-12-17T17:05:40.425Z,0.44
2022-12-17T17:08:07.230Z,0.42
2022-12-17T17:10:36.741Z,0.41
2022-12-17T17:13:04.183Z,0.39
2022-12-17T17:15:31.601Z,0.38
2022-12-17T17:18:01.434Z,0.35
2022-12-17T17:20:32.127Z,0.34
2022-12-17T17:22:59.572Z,0.31
2022-12-17T17:25:43.954Z,0.29
2022-12-17T17:28:13.705Z,0.25
2022-12-17T17:30:40.501Z,0.22
2022-12-17T17:33:07.263Z,0.18
2022-12-17T17:35:34.038Z,0.14
2022-12-17T17:38:00.886Z,0.13
2022-12-17T17:40:27.710Z,0.10
2022-12-17T17:42:54.479Z,0.09
2022-12-17T17:45:21.286Z,0.06
2022-12-17T17:47:48.046Z,0.03
2022-12-17T17:50:14.827Z,0.00
2022-12-17T17:52:41.601Z,-0.03
2022-12-17T17:55:08.467Z,-0.06
2022-12-17T17:57:35.233Z,-0.09
2022-12-17T18:00:02.725Z,-0.12
2022-12-17T18:02:29.664Z,-0.12
2022-12-17T18:04:56.601Z,-0.17
2022-12-17T18:07:26.091Z,-0.18
2022-12-17T18:09:54.479Z,-0.21
2022-12-17T18:12:40.248Z,-0.25
2022-12-17T18:15:16.809Z,-0.28
2022-12-17T18:17:51.166Z,-0.33
2022-12-17T18:20:18.788Z,-0.35
2022-12-17T18:22:46.124Z,-0.38
2022-12-17T18:25:13.373Z,-0.41
2022-12-17T18:27:40.144Z,-0.43
2022-12-17T18:30:08.269Z,-0.47
2022-12-17T18:32:35.016Z,-0.48
2022-12-17T18:35:01.822Z,-0.52
2022-12-17T18:37:28.601Z,-0.55
2022-12-17T18:39:55.366Z,-0.54
2022-12-17T18:42:40.618Z,-0.58
2022-12-17T18:45:07.922Z,-0.61
2022-12-17T18:47:34.666Z,-0.63
2022-12-17T18:50:01.439Z,-0.64
2022-12-17T18:52:28.215Z,-0.65
2022-12-17T18:54:54.979Z,-0.66
2022-12-17T18:57:21.797Z,-0.68
2022-12-17T18:59:49.176Z,-0.68
2022-12-17T19:02:16.092Z,-0.70
2022-12-17T19:04:43.202Z,-0.74
2022-12-17T19:07:10.418Z,-0.75
2022-12-17T19:09:39.418Z,-0.77
2022-12-17T19:12:08.429Z,-0.79
2022-12-17T19:14:35.303Z,-0.79
2022-12-17T19:17:03.024Z,-0.83
2022-12-17T19:19:29.793Z,-0.84
2022-12-17T19:21:58.573Z,-0.87
2022-12-17T19:24:25.481Z,-0.88
2022-12-17T19:26:52.611Z,-0.93
2022-12-17T19:29:20.796Z,-0.94
2022-12-17T19:31:47.870Z,-0.95
2022-12-17T19:34:17.200Z,-0.98
2022-12-17T19:36:45.119Z,-1.00
2022-12-17T19:39:18.652Z,-1.02
2022-12-17T19:41:45.954Z,-1.06
2022-12-17T19:44:15.854Z,-1.06
2022-12-17T19:46:43.447Z,-1.08
2022-12-17T19:49:15.400Z,-1.11
2022-12-17T19:51:44.177Z,-1.13
2022-12-17T19:54:13.747Z,-1.16
2022-12-17T19:56:40.556Z,-1.19
2022-12-17T19:59:09.910Z,-1.20
2022-12-17T20:01:45.292Z,-1.22
2022-12-17T20:04:14.618Z,-1.25
2022-12-17T20:06:41.974Z,-1.26
2022-12-17T20:09:08.968Z,-1.29
2022-12-17T20:11:36.449Z,-1.28
2022-12-17T20:14:12.095Z,-1.31
2022-12-17T20:16:50.685Z,-1.31
2022-12-17T20:19:26.887Z,-1.33
2022-12-17T20:21:55.443Z,-1.36
2022-12-17T20:24:28.853Z,-1.36
2022-12-17T20:26:57.766Z,-1.39
2022-12-17T20:29:25.385Z,-1.40
2022-12-17T20:31:53.554Z,-1.42
2022-12-17T20:34:20.726Z,-1.43
2022-12-17T20:36:47.624Z,-1.46
2022-12-17T20:39:14.431Z,-1.48
2022-12-17T20:41:41.803Z,-1.51
2022-12-17T20:44:13.175Z,-1.53
2022-12-17T20:46:43.646Z,-1.56
2022-12-17T20:49:12.289Z,-1.59
2022-12-17T20:51:39.109Z,-1.63
2022-12-17T20:54:08.175Z,-1.65
2022-12-17T20:56:35.587Z,-1.69
2022-12-17T20:59:08.608Z,-1.70
2022-12-17T21:01:36.838Z,-1.74
2022-12-17T21:04:07.267Z,-1.76
2022-12-17T21:06:47.110Z,-1.79
2022-12-17T21:09:15.962Z,-1.83
2022-12-17T21:11:42.735Z,-1.86
2022-12-17T21:14:13.932Z,-1.88
2022-12-17T21:16:42.230Z,-1.90
2022-12-17T21:19:12.901Z,-1.91
2022-12-17T21:21:39.690Z,-1.94
2022-12-17T21:24:08.155Z,-1.95
2022-12-17T21:26:38.815Z,-1.96
2022-12-17T21:29:07.887Z,-1.97
2022-12-17T21:31:41.366Z,-2.01
2022-12-17T21:34:12.855Z,-2.03
2022-12-17T21:36:40.037Z,-2.04
2022-12-17T21:39:09.425Z,-2.08
2022-12-17T21:41:40.036Z,-2.08
2022-12-17T21:44:12.722Z,-2.10
2022-12-17T21:46:40.581Z,-2.11
2022-12-17T21:49:07.423Z,-2.13
2022-12-17T21:51:34.515Z,-2.13
2022-12-17T21:54:08.181Z,-2.15
2022-12-17T21:56:35.954Z,-2.14
2022-12-17T21:59:02.745Z,-2.16
2022-12-17T22:01:33.016Z,-2.16
2022-12-17T22:04:04.125Z,-2.18
2022-12-17T22:06:35.770Z,-2.17
2022-12-17T22:09:18.801Z,-2.19
2022-12-17T22:12:14.776Z,-2.21
2022-12-17T22:14:41.604Z,-2.23
2022-12-17T22:17:08.422Z,-2.24
2022-12-17T22:19:35.249Z,-2.27
2022-12-17T22:22:02.003Z,-2.28
2022-12-17T22:24:29.344Z,-2.28
2022-12-17T22:27:02.661Z,-2.31
2022-12-17T22:29:47.829Z,-2.33
2022-12-17T22:32:33.726Z,-2.35
2022-12-17T22:36:24.402Z,-2.40
2022-12-17T22:40:57.018Z,-2.41
2022-12-17T22:44:34.957Z,-2.43
2022-12-17T22:44:41.942Z,-2.45
2022-12-17T22:46:16.572Z,-2.50
2022-12-17T22:48:43.610Z,-2.50
2022-12-17T22:51:15.157Z,-2.51
2022-12-17T22:53:53.803Z,-2.54
2022-12-17T22:56:49.450Z,-2.54
2022-12-17T22:59:15.230Z,-2.57
2022-12-17T23:01:42.034Z,-2.60
2022-12-17T23:04:13.543Z,-2.61
2022-12-17T23:06:41.488Z,-2.64
2022-12-17T23:09:08.260Z,-2.65
2022-12-17T23:11:35.176Z,-2.67
2022-12-17T23:14:01.933Z,-2.68
2022-12-17T23:16:28.870Z,-2.69
2022-12-17T23:18:55.863Z,-2.71
2022-12-17T23:21:26.211Z,-2.74
2022-12-17T23:23:54.209Z,-2.76
2022-12-17T23:26:24.865Z,-2.78
2022-12-17T23:29:01.685Z,-2.78
2022-12-17T23:31:33.691Z,-2.83
2022-12-17T23:34:00.533Z,-2.84
2022-12-17T23:36:28.032Z,-2.86
2022-12-17T23:38:56.292Z,-2.87
2022-12-17T23:41:27.127Z,-2.89
2022-12-17T23:43:55.247Z,-2.91
2022-12-17T23:46:23.949Z,-2.93
2022-12-17T23:48:51.378Z,-2.94
2022-12-17T23:51:20.897Z,-2.95
2022-12-17T23:53:48.113Z,-2.99
2022-12-17T23:56:23.806Z,-3.01
2022-12-17T23:58:57.483Z,-3.03
